Time;durP1;ratioP1;P1;durP2;ratioP2;P2;SDS_P1;SDS_P2;PMS_P1;PMS_P2;Temp;Humidity;BMP_temperature;BMP_pressure;BME280_temperature;BME280_humidity;BME280_pressure;Samples;Min_cycle;Max_cycle;Signal;HPM_P1;HPM_P2
2021/12/23 00:00:06;;;;;;;46.50;23.07;;;-6.80;99.90;;;;;;5021514;28;20038;-82
2021/12/23 00:02:32;;;;;;;44.00;23.10;;;-6.80;99.90;;;;;;4955249;28;20125;-82
2021/12/23 00:04:57;;;;;;;42.03;23.37;;;-6.80;99.90;;;;;;4956677;28;20492;-82
2021/12/23 00:07:23;;;;;;;44.77;24.53;;;-6.80;99.90;;;;;;4956841;28;20209;-82
2021/12/23 00:12:16;;;;;;;41.90;22.00;;;-6.90;99.90;;;;;;4957425;28;20523;-82
2021/12/23 00:14:41;;;;;;;39.30;22.77;;;-6.90;99.90;;;;;;4957245;28;20106;-82
2021/12/23 00:17:21;;;;;;;43.23;22.90;;;-6.90;99.90;;;;;;4956524;28;20178;-82
2021/12/23 00:23:22;;;;;;;39.27;21.10;;;-6.90;99.90;;;;;;4964052;28;20027;-82
2021/12/23 00:25:29;;;;;;;52.28;26.67;;;-7.00;99.90;;;;;;4958662;28;20042;-82
2021/12/23 00:27:54;;;;;;;56.53;28.57;;;-7.00;99.90;;;;;;4958012;28;20043;-82
2021/12/23 00:30:20;;;;;;;55.83;28.93;;;-7.00;99.90;;;;;;4959137;28;20102;-82
2021/12/23 00:32:46;;;;;;;40.70;23.30;;;-7.00;99.90;;;;;;4958548;28;20092;-82
2021/12/23 00:35:11;;;;;;;44.03;24.90;;;-7.00;99.90;;;;;;4957451;28;20846;-82
2021/12/23 00:37:42;;;;;;;43.50;22.67;;;-7.00;99.90;;;;;;4960519;28;20035;-82
2021/12/23 00:40:11;;;;;;;40.67;22.77;;;-7.00;99.90;;;;;;5024288;28;20117;-81
2021/12/23 00:42:37;;;;;;;45.50;23.50;;;-7.00;99.90;;;;;;4956510;28;20114;-82
2021/12/23 00:45:03;;;;;;;42.83;23.00;;;-6.90;99.90;;;;;;4956503;28;20316;-82
2021/12/23 00:47:29;;;;;;;40.87;21.30;;;-7.00;99.90;;;;;;5021955;28;20693;-82
2021/12/23 00:49:56;;;;;;;46.73;23.20;;;-7.00;99.90;;;;;;4960301;28;20031;-82
2021/12/23 00:52:36;;;;;;;44.40;23.63;;;-7.00;99.90;;;;;;4957838;28;20578;-82
2021/12/23 00:55:04;;;;;;;43.40;23.07;;;-7.00;99.90;;;;;;4956283;28;20599;-82
2021/12/23 00:57:31;;;;;;;49.70;21.63;;;-7.00;99.90;;;;;;4958372;28;20024;-82
2021/12/23 00:59:58;;;;;;;38.73;21.33;;;-7.00;99.90;;;;;;4961696;28;20027;-82
2021/12/23 01:02:30;;;;;;;36.97;20.87;;;-7.00;99.90;;;;;;4960311;28;20736;-82
2021/12/23 01:04:56;;;;;;;38.87;20.73;;;-7.00;99.90;;;;;;4961314;28;20266;-82
2021/12/23 01:07:22;;;;;;;40.37;20.83;;;-7.00;99.90;;;;;;4960466;28;20295;-82
2021/12/23 01:09:48;;;;;;;39.00;21.07;;;-7.00;99.90;;;;;;4962708;28;20031;-82
2021/12/23 01:12:19;;;;;;;38.40;20.10;;;-7.00;99.90;;;;;;4960515;28;20032;-81
2021/12/23 01:15:09;;;;;;;39.53;18.83;;;-7.00;99.90;;;;;;4960365;28;20030;-82
2021/12/23 01:17:53;;;;;;;34.40;18.93;;;-7.00;99.90;;;;;;4960823;28;20084;-82
2021/12/23 01:20:28;;;;;;;33.17;18.23;;;-7.00;99.90;;;;;;4961250;28;20357;-82
2021/12/23 01:22:59;;;;;;;31.98;15.98;;;-7.00;99.90;;;;;;4961560;28;20119;-82
2021/12/23 01:25:26;;;;;;;35.37;17.73;;;-7.00;99.90;;;;;;5027934;28;20041;-81
2021/12/23 01:27:52;;;;;;;35.20;18.87;;;-7.00;99.90;;;;;;5028412;28;20380;-81
2021/12/23 01:30:19;;;;;;;34.37;18.40;;;-7.00;99.90;;;;;;4958176;28;20305;-81
2021/12/23 01:32:46;;;;;;;36.73;19.33;;;-7.00;99.90;;;;;;4957235;28;20110;-81
2021/12/23 01:35:12;;;;;;;32.23;19.03;;;-7.00;99.90;;;;;;5025072;28;20283;-81
2021/12/23 01:37:38;;;;;;;33.10;18.67;;;-7.00;99.90;;;;;;4958652;28;20101;-81
2021/12/23 01:40:05;;;;;;;34.47;19.43;;;-7.00;99.90;;;;;;4958393;28;20274;-80
2021/12/23 01:42:31;;;;;;;32.53;18.97;;;-7.00;99.90;;;;;;4957953;28;20030;-81
2021/12/23 01:44:56;;;;;;;35.13;18.73;;;-6.90;99.90;;;;;;4959026;28;20027;-80
2021/12/23 01:47:23;;;;;;;32.90;18.90;;;-6.90;99.90;;;;;;4967972;28;20505;-81
2021/12/23 01:49:49;;;;;;;34.63;19.30;;;-6.80;99.90;;;;;;4967512;28;20092;-80
2021/12/23 01:52:15;;;;;;;37.50;20.90;;;-6.80;99.90;;;;;;4958602;28;20286;-80
2021/12/23 01:54:41;;;;;;;38.80;21.17;;;-6.80;99.90;;;;;;4958407;28;20349;-80
2021/12/23 01:57:07;;;;;;;40.93;20.87;;;-6.60;99.90;;;;;;4958575;28;20181;-80
2021/12/23 01:59:39;;;;;;;64.73;21.63;;;-6.60;99.90;;;;;;4959054;28;20031;-80
2021/12/23 02:02:04;;;;;;;78.30;23.60;;;-6.50;99.90;;;;;;4958873;28;20065;-80
2021/12/23 02:04:30;;;;;;;57.63;23.33;;;-6.40;99.90;;;;;;4960044;28;20326;-81
2021/12/23 02:06:55;;;;;;;66.40;24.17;;;-6.40;99.90;;;;;;4960760;28;20089;-82
2021/12/23 02:09:21;;;;;;;109.67;27.57;;;-6.30;99.90;;;;;;4958421;28;20092;-81
2021/12/23 02:11:47;;;;;;;92.00;28.00;;;-6.30;99.90;;;;;;4960229;28;20023;-81
2021/12/23 02:14:13;;;;;;;89.13;27.93;;;-6.30;99.90;;;;;;4959597;28;20022;-81
2021/12/23 02:16:38;;;;;;;55.43;27.03;;;-6.20;99.90;;;;;;4959752;28;20122;-81
2021/12/23 02:19:13;;;;;;;61.37;27.80;;;-6.20;99.90;;;;;;4960085;28;20442;-82
2021/12/23 02:21:42;;;;;;;47.20;22.88;;;-6.20;99.90;;;;;;4959302;28;20118;-81
2021/12/23 02:24:07;;;;;;;52.97;26.73;;;-6.10;99.90;;;;;;5024686;28;20144;-82
2021/12/23 02:26:38;;;;;;;59.97;28.77;;;-6.10;99.90;;;;;;4958069;28;20039;-81
2021/12/23 02:29:04;;;;;;;58.43;29.30;;;-6.10;99.90;;;;;;4960921;28;20038;-81
2021/12/23 02:31:29;;;;;;;52.10;26.50;;;-6.10;99.90;;;;;;4958967;28;20357;-82
2021/12/23 02:33:55;;;;;;;57.83;29.27;;;-6.00;99.90;;;;;;4956987;28;20036;-82
2021/12/23 02:36:21;;;;;;;54.37;27.63;;;-6.00;99.90;;;;;;5024956;28;20448;-82
2021/12/23 02:38:49;;;;;;;64.93;30.43;;;-5.90;99.90;;;;;;4958062;28;20035;-82
2021/12/23 02:41:14;;;;;;;64.67;30.10;;;-5.80;99.90;;;;;;5023662;28;20031;-81
2021/12/23 02:43:40;;;;;;;77.60;28.77;;;-5.80;99.90;;;;;;4959368;28;20031;-82
2021/12/23 02:46:05;;;;;;;56.87;29.43;;;-5.80;99.90;;;;;;5024131;28;20053;-82
2021/12/23 02:48:35;;;;;;;96.27;29.67;;;-5.70;99.90;;;;;;5024279;28;20031;-82
2021/12/23 02:51:04;;;;;;;61.33;28.63;;;-5.70;99.90;;;;;;4958867;28;20462;-82
2021/12/23 02:53:30;;;;;;;66.57;28.80;;;-5.70;99.90;;;;;;4958078;28;20031;-82
2021/12/23 02:55:57;;;;;;;56.70;27.10;;;-5.60;99.90;;;;;;4958117;28;20093;-82
2021/12/23 02:58:23;;;;;;;58.90;28.93;;;-5.60;99.90;;;;;;4957709;28;20023;-82
2021/12/23 03:00:51;;;;;;;78.97;29.93;;;-5.60;99.90;;;;;;4957318;28;20038;-82
2021/12/23 03:03:17;;;;;;;64.57;29.93;;;-5.60;99.90;;;;;;4957511;28;20028;-81
2021/12/23 03:05:51;;;;;;;57.87;26.53;;;-5.50;99.90;;;;;;4958077;28;20023;-82
2021/12/23 03:08:27;;;;;;;57.03;27.40;;;-5.50;99.90;;;;;;4958301;28;20031;-82
2021/12/23 03:10:53;;;;;;;64.00;29.83;;;-5.50;99.90;;;;;;4958179;28;20023;-82
2021/12/23 03:13:18;;;;;;;68.17;30.10;;;-5.40;99.90;;;;;;4957073;28;20439;-82
2021/12/23 03:15:45;;;;;;;61.13;28.93;;;-5.40;99.90;;;;;;5036575;28;20568;-82
2021/12/23 03:18:10;;;;;;;61.93;29.77;;;-5.40;99.90;;;;;;5039275;28;20112;-82
2021/12/23 03:20:38;;;;;;;59.03;26.20;;;-5.40;99.90;;;;;;5039235;28;20037;-82
2021/12/23 03:23:04;;;;;;;65.83;28.43;;;-5.30;99.90;;;;;;5038612;28;20393;-82
2021/12/23 03:25:30;;;;;;;57.77;28.83;;;-5.30;99.90;;;;;;5039243;28;20025;-82
2021/12/23 03:27:58;;;;;;;63.13;29.53;;;-5.20;99.90;;;;;;5037916;28;20029;-82
2021/12/23 03:30:23;;;;;;;69.10;29.20;;;-5.20;99.90;;;;;;5038916;28;20024;-82
2021/12/23 03:32:49;;;;;;;62.33;30.00;;;-5.20;99.90;;;;;;5038851;28;20025;-82
2021/12/23 03:35:17;;;;;;;70.13;30.33;;;-5.20;99.90;;;;;;5039306;28;20021;-82
2021/12/23 03:37:46;;;;;;;71.43;30.10;;;-5.10;99.90;;;;;;5039227;28;20431;-82
2021/12/23 03:40:13;;;;;;;59.80;28.53;;;-5.10;99.90;;;;;;5038571;28;20068;-82
2021/12/23 03:42:39;;;;;;;58.33;27.57;;;-5.10;99.90;;;;;;5039162;28;20029;-82
2021/12/23 03:45:08;;;;;;;79.03;29.37;;;-5.00;99.90;;;;;;5038203;28;20411;-82
2021/12/23 03:47:35;;;;;;;80.37;29.17;;;-5.00;99.90;;;;;;5037627;28;20379;-82
2021/12/23 03:50:02;;;;;;;77.03;30.20;;;-5.00;99.90;;;;;;5038613;28;20474;-82
2021/12/23 03:52:27;;;;;;;73.73;32.93;;;-5.00;99.90;;;;;;5038916;28;20021;-82
2021/12/23 03:54:53;;;;;;;64.97;31.37;;;-5.00;99.90;;;;;;5038362;28;20043;-82
2021/12/23 03:57:18;;;;;;;97.00;32.23;;;-5.00;99.90;;;;;;5038304;28;20103;-82
2021/12/23 03:59:44;;;;;;;88.93;31.90;;;-5.00;99.90;;;;;;5040538;28;20045;-82
2021/12/23 04:02:10;;;;;;;80.47;30.67;;;-5.00;99.90;;;;;;5038795;28;20017;-82
2021/12/23 04:04:38;;;;;;;71.53;29.90;;;-5.00;99.90;;;;;;5040018;28;20029;-82
2021/12/23 04:07:06;;;;;;;65.67;28.77;;;-4.90;99.90;;;;;;5037647;28;20087;-82
2021/12/23 04:09:31;;;;;;;67.30;26.70;;;-4.80;99.90;;;;;;5038370;28;20494;-82
2021/12/23 04:11:57;;;;;;;73.10;27.40;;;-4.70;99.90;;;;;;5039340;28;20043;-82
2021/12/23 04:14:22;;;;;;;63.43;27.47;;;-4.80;99.90;;;;;;5037743;28;20117;-82
2021/12/23 04:16:48;;;;;;;73.43;26.07;;;-4.90;99.90;;;;;;4972754;28;20379;-82
2021/12/23 04:19:14;;;;;;;128.47;30.67;;;-4.90;99.90;;;;;;4957260;28;20043;-82
2021/12/23 04:21:41;;;;;;;105.70;28.40;;;-5.00;99.90;;;;;;5022418;28;20058;-82
2021/12/23 04:24:07;;;;;;;66.33;28.43;;;-5.00;99.90;;;;;;4955940;28;20057;-82
2021/12/23 04:26:34;;;;;;;78.80;28.67;;;-5.10;99.90;;;;;;4957493;28;20055;-82
2021/12/23 04:28:59;;;;;;;64.00;26.77;;;-5.10;99.90;;;;;;4958618;28;20050;-82
2021/12/23 04:31:25;;;;;;;68.40;26.03;;;-5.10;99.90;;;;;;4957522;28;20070;-82
2021/12/23 04:33:54;;;;;;;97.90;25.73;;;-5.20;99.90;;;;;;5029183;28;20027;-82
2021/12/23 04:36:20;;;;;;;119.47;29.97;;;-5.20;99.90;;;;;;5051467;28;20023;-82
2021/12/23 04:38:46;;;;;;;147.50;28.63;;;-5.30;99.90;;;;;;4964125;28;20149;-82
2021/12/23 04:41:13;;;;;;;69.00;26.93;;;-5.30;99.90;;;;;;4959480;28;20643;-82
2021/12/23 04:43:39;;;;;;;53.33;26.83;;;-5.30;99.90;;;;;;4959174;28;20387;-82
2021/12/23 04:46:06;;;;;;;51.83;26.30;;;-5.30;99.90;;;;;;4959059;28;20043;-82
2021/12/23 04:48:32;;;;;;;47.47;25.87;;;-5.30;99.90;;;;;;4962547;28;20455;-82
2021/12/23 04:50:59;;;;;;;40.60;23.20;;;-5.30;99.90;;;;;;4960185;28;20031;-82
2021/12/23 04:53:25;;;;;;;40.93;21.93;;;-5.40;99.90;;;;;;4960367;28;20482;-82
2021/12/23 04:55:51;;;;;;;39.60;22.30;;;-5.40;99.90;;;;;;4958710;28;20053;-82
2021/12/23 04:58:17;;;;;;;64.37;24.83;;;-5.50;99.90;;;;;;5028489;28;20481;-82
2021/12/23 05:00:47;;;;;;;94.23;23.27;;;-5.50;99.90;;;;;;4960905;28;20042;-82
2021/12/23 05:03:17;;;;;;;50.40;23.10;;;-5.60;99.90;;;;;;4961451;28;20063;-82
2021/12/23 05:05:44;;;;;;;59.03;24.40;;;-5.60;99.90;;;;;;4961693;28;20046;-82
2021/12/23 05:08:10;;;;;;;50.80;22.00;;;-5.70;99.90;;;;;;4960129;28;20117;-82
2021/12/23 05:10:36;;;;;;;40.90;21.63;;;-5.70;99.90;;;;;;4959922;28;20110;-82
2021/12/23 05:13:03;;;;;;;62.13;23.63;;;-5.70;99.90;;;;;;4959206;28;20039;-82
2021/12/23 05:15:29;;;;;;;49.90;25.63;;;-5.70;99.90;;;;;;4959367;28;20126;-82
2021/12/23 05:17:54;;;;;;;45.33;23.00;;;-5.70;99.90;;;;;;4961034;28;20126;-82
2021/12/23 05:20:20;;;;;;;51.10;23.00;;;-5.70;99.90;;;;;;4963490;28;20116;-82
2021/12/23 05:22:47;;;;;;;59.40;24.43;;;-5.70;99.90;;;;;;4959878;28;20440;-82
2021/12/23 05:25:12;;;;;;;56.00;24.77;;;-5.80;99.90;;;;;;4958804;28;20111;-83
2021/12/23 05:27:38;;;;;;;54.93;24.27;;;-5.80;99.90;;;;;;4959781;28;20042;-82
2021/12/23 05:30:10;;;;;;;62.80;24.93;;;-5.80;99.90;;;;;;5025367;28;20352;-82
2021/12/23 05:32:36;;;;;;;62.13;27.50;;;-5.80;99.90;;;;;;4964447;28;20092;-82
2021/12/23 05:35:03;;;;;;;48.07;23.70;;;-5.70;99.90;;;;;;4967509;28;20051;-82
2021/12/23 05:37:28;;;;;;;74.10;24.47;;;-5.70;99.90;;;;;;4962240;28;20035;-82
2021/12/23 05:39:54;;;;;;;48.13;26.47;;;-5.70;99.90;;;;;;4962791;28;20050;-82
2021/12/23 05:42:20;;;;;;;77.37;25.40;;;-5.70;99.90;;;;;;4959525;28;20098;-82
2021/12/23 05:44:45;;;;;;;64.97;24.37;;;-5.70;99.90;;;;;;4960931;28;20432;-82
2021/12/23 05:47:11;;;;;;;49.70;23.37;;;-5.70;99.90;;;;;;4960124;28;20046;-82
2021/12/23 05:49:37;;;;;;;55.50;26.13;;;-5.60;99.90;;;;;;4970467;28;20027;-82
2021/12/23 05:52:03;;;;;;;46.53;24.67;;;-5.70;99.90;;;;;;4959678;28;20038;-82
2021/12/23 05:54:28;;;;;;;51.33;23.03;;;-5.70;99.90;;;;;;4961681;28;20047;-83
2021/12/23 05:56:57;;;;;;;49.50;24.23;;;-5.70;99.90;;;;;;4961677;28;20522;-82
2021/12/23 05:59:22;;;;;;;57.10;23.83;;;-5.60;99.90;;;;;;4958288;28;20034;-87
2021/12/23 06:01:48;;;;;;;56.27;23.23;;;-5.70;99.90;;;;;;5025832;28;20034;-86
2021/12/23 06:04:14;;;;;;;48.57;23.70;;;-5.70;99.90;;;;;;4961025;28;20168;-82
2021/12/23 06:06:40;;;;;;;45.10;23.50;;;-5.70;99.90;;;;;;4960852;28;20035;-82
2021/12/23 06:09:06;;;;;;;43.63;22.50;;;-5.80;99.90;;;;;;4963479;28;20100;-82
2021/12/23 06:11:31;;;;;;;49.30;23.27;;;-5.80;99.90;;;;;;4958662;28;20091;-82
2021/12/23 06:13:57;;;;;;;42.63;22.40;;;-5.80;99.90;;;;;;4957363;28;20027;-82
2021/12/23 06:16:22;;;;;;;42.40;23.27;;;-5.90;99.90;;;;;;4959140;28;20104;-82
2021/12/23 06:18:48;;;;;;;44.83;23.10;;;-5.90;99.90;;;;;;5025817;28;20109;-82
2021/12/23 06:21:14;;;;;;;40.57;23.33;;;-6.00;99.90;;;;;;4961724;28;20043;-82
2021/12/23 06:23:39;;;;;;;41.40;22.73;;;-6.00;99.90;;;;;;4959727;28;20042;-82
2021/12/23 06:26:05;;;;;;;41.80;21.90;;;-6.00;99.90;;;;;;4959707;28;20031;-80
2021/12/23 06:28:30;;;;;;;41.30;21.53;;;-6.10;99.90;;;;;;4961457;28;20046;-80
2021/12/23 06:30:56;;;;;;;41.10;21.43;;;-6.10;99.90;;;;;;4957821;28;20039;-80
2021/12/23 06:33:22;;;;;;;39.37;22.10;;;-6.10;99.90;;;;;;4964304;28;20025;-80
2021/12/23 06:35:47;;;;;;;37.53;21.60;;;-6.20;99.90;;;;;;4960709;28;20039;-80
2021/12/23 06:38:13;;;;;;;39.13;21.67;;;-6.20;99.90;;;;;;4958639;28;20038;-80
2021/12/23 06:40:40;;;;;;;39.37;20.83;;;-6.30;99.90;;;;;;4959248;28;20038;-80
2021/12/23 06:43:07;;;;;;;37.90;20.20;;;-6.30;99.90;;;;;;4960196;28;20108;-79
2021/12/23 06:45:32;;;;;;;35.80;19.97;;;-6.30;99.90;;;;;;4959480;28;20097;-80
2021/12/23 06:47:58;;;;;;;37.63;21.10;;;-6.30;99.90;;;;;;4960463;28;20088;-80
2021/12/23 06:50:24;;;;;;;35.63;21.33;;;-6.30;99.90;;;;;;4966658;28;20825;-79
2021/12/23 06:52:50;;;;;;;37.60;21.33;;;-6.30;99.90;;;;;;4958955;28;20074;-80
2021/12/23 06:55:16;;;;;;;36.70;19.80;;;-6.40;99.90;;;;;;4957539;28;20368;-80
2021/12/23 06:57:43;;;;;;;34.70;20.40;;;-6.40;99.90;;;;;;4959143;28;20467;-80
2021/12/23 07:00:14;;;;;;;35.50;19.87;;;-6.40;99.90;;;;;;4960778;28;20494;-80
2021/12/23 07:02:41;;;;;;;32.73;17.93;;;-6.40;99.90;;;;;;4957921;28;20034;-80
2021/12/23 07:05:07;;;;;;;36.80;20.20;;;-6.40;99.90;;;;;;4958858;28;20489;-80
2021/12/23 07:07:41;;;;;;;36.97;20.30;;;-6.50;99.90;;;;;;4957280;28;20039;-80
2021/12/23 07:10:10;;;;;;;39.17;21.00;;;-6.50;99.90;;;;;;4957804;28;20030;-80
2021/12/23 07:12:36;;;;;;;36.67;20.53;;;-6.50;99.90;;;;;;4957450;28;20035;-80
2021/12/23 07:15:03;;;;;;;37.27;20.27;;;-6.50;99.90;;;;;;4957955;28;20476;-80
2021/12/23 07:17:28;;;;;;;37.73;21.67;;;-6.60;99.90;;;;;;4963462;28;20179;-80
2021/12/23 07:19:54;;;;;;;37.33;20.63;;;-6.60;99.90;;;;;;4964793;28;20501;-81
2021/12/23 07:22:19;;;;;;;35.20;19.60;;;-6.60;99.90;;;;;;4968361;28;20031;-81
2021/12/23 07:24:45;;;;;;;37.17;21.00;;;-6.60;99.90;;;;;;4968795;28;20023;-81
2021/12/23 07:27:11;;;;;;;35.93;19.20;;;-6.50;99.90;;;;;;4968204;28;20415;-81
2021/12/23 07:29:36;;;;;;;33.00;19.10;;;-6.60;99.90;;;;;;4968585;28;20039;-81
2021/12/23 07:32:04;;;;;;;33.83;19.80;;;-6.50;99.90;;;;;;4966719;28;20038;-81
2021/12/23 07:34:30;;;;;;;34.27;18.97;;;-6.50;99.90;;;;;;4967872;28;20116;-80
2021/12/23 07:36:56;;;;;;;35.33;21.47;;;-6.50;99.90;;;;;;5034602;28;20043;-80
2021/12/23 07:39:22;;;;;;;37.33;20.97;;;-6.50;99.90;;;;;;4968004;28;20035;-81
2021/12/23 07:41:48;;;;;;;36.70;20.73;;;-6.50;99.90;;;;;;4968128;28;20023;-81
2021/12/23 07:44:20;;;;;;;36.17;20.50;;;-6.40;99.90;;;;;;4968168;28;20034;-79
2021/12/23 07:46:47;;;;;;;40.87;22.23;;;-6.40;99.90;;;;;;4968494;28;20784;-80
2021/12/23 07:49:14;;;;;;;39.80;20.73;;;-6.30;99.90;;;;;;4968641;28;20031;-80
2021/12/23 07:51:39;;;;;;;36.63;20.20;;;-6.20;99.90;;;;;;4968230;28;20069;-79
2021/12/23 07:54:08;;;;;;;33.70;19.57;;;-6.10;99.90;;;;;;4967656;28;20098;-80
2021/12/23 07:56:34;;;;;;;34.13;18.67;;;-6.10;99.90;;;;;;4968151;28;20023;-79
2021/12/23 07:59:00;;;;;;;33.10;18.43;;;-6.00;99.90;;;;;;4968459;28;20023;-80
2021/12/23 08:01:25;;;;;;;32.80;18.33;;;-5.90;99.90;;;;;;4968774;28;20027;-79
2021/12/23 08:03:51;;;;;;;37.57;20.10;;;-5.90;99.90;;;;;;4968734;28;20027;-79
2021/12/23 08:06:19;;;;;;;37.17;20.17;;;-5.70;99.90;;;;;;4968137;28;20035;-77
2021/12/23 08:08:45;;;;;;;34.77;19.13;;;-5.70;99.90;;;;;;4969240;28;20474;-78
2021/12/23 08:11:11;;;;;;;35.23;19.80;;;-5.60;99.90;;;;;;5027257;28;20030;-78
2021/12/23 08:13:37;;;;;;;34.93;19.40;;;-5.50;99.90;;;;;;4958085;28;20380;-79
2021/12/23 08:16:04;;;;;;;43.17;23.93;;;-5.50;99.90;;;;;;4966318;28;20043;-78
2021/12/23 08:18:30;;;;;;;40.70;22.07;;;-5.40;99.90;;;;;;4966043;28;20028;-78
2021/12/23 08:20:58;;;;;;;43.50;23.87;;;-5.30;99.90;;;;;;4960963;28;20063;-79
2021/12/23 08:23:24;;;;;;;38.80;21.43;;;-5.20;99.90;;;;;;4964271;28;20114;-79
2021/12/23 08:25:49;;;;;;;38.13;21.70;;;-5.10;99.90;;;;;;4963674;28;20030;-79
2021/12/23 08:28:15;;;;;;;37.40;20.17;;;-5.00;99.90;;;;;;4966884;28;20031;-77
2021/12/23 08:30:41;;;;;;;40.80;23.07;;;-4.90;99.90;;;;;;4955137;28;20029;-78
2021/12/23 08:33:08;;;;;;;38.73;21.13;;;-4.80;99.90;;;;;;4959835;28;20026;-79
2021/12/23 08:35:34;;;;;;;37.13;20.20;;;-4.70;99.90;;;;;;4969692;28;20078;-78
2021/12/23 08:38:00;;;;;;;38.27;22.13;;;-4.60;99.90;;;;;;4969380;28;20019;-79
2021/12/23 08:40:27;;;;;;;40.17;22.27;;;-4.60;99.90;;;;;;5035678;28;20545;-79
2021/12/23 08:42:56;;;;;;;34.67;20.63;;;-4.40;99.90;;;;;;4966443;28;20019;-80
2021/12/23 08:45:24;;;;;;;35.67;20.27;;;-4.40;99.90;;;;;;4967190;28;20058;-80
2021/12/23 08:47:51;;;;;;;37.63;20.70;;;-4.20;99.90;;;;;;4967441;28;20027;-81
2021/12/23 08:50:19;;;;;;;37.97;20.33;;;-4.10;99.90;;;;;;4958534;28;20360;-79
2021/12/23 08:52:45;;;;;;;41.00;22.20;;;-4.00;99.90;;;;;;4960593;28;20564;-83
2021/12/23 08:55:12;;;;;;;36.90;21.20;;;-4.00;99.90;;;;;;4970303;28;20058;-79
2021/12/23 08:57:39;;;;;;;39.20;22.57;;;-3.90;99.90;;;;;;5037363;28;20077;-81
2021/12/23 09:00:09;;;;;;;34.47;20.80;;;-3.80;99.90;;;;;;4968391;28;20027;-80
2021/12/23 09:02:34;;;;;;;36.00;21.97;;;-3.70;99.90;;;;;;4968416;28;20045;-80
2021/12/23 09:05:00;;;;;;;40.07;22.27;;;-3.60;99.90;;;;;;5032509;28;20039;-80
2021/12/23 09:07:26;;;;;;;35.40;21.13;;;-3.50;99.90;;;;;;4965612;28;20031;-79
2021/12/23 09:09:51;;;;;;;37.57;21.70;;;-3.50;99.90;;;;;;4968249;28;20030;-79
2021/12/23 09:12:19;;;;;;;38.90;22.00;;;-3.30;99.90;;;;;;4965424;28;20380;-79
2021/12/23 09:14:44;;;;;;;39.17;21.87;;;-3.30;99.90;;;;;;5023504;28;20115;-80
2021/12/23 09:17:10;;;;;;;34.67;20.57;;;-3.20;99.90;;;;;;4965881;28;20129;-78
2021/12/23 09:19:36;;;;;;;43.37;24.00;;;-3.10;99.90;;;;;;4973363;28;20034;-77
2021/12/23 09:22:02;;;;;;;44.10;22.57;;;-3.10;99.90;;;;;;4968612;28;20028;-80
2021/12/23 09:24:28;;;;;;;37.87;21.67;;;-3.00;99.90;;;;;;4963984;28;20019;-80
2021/12/23 09:27:01;;;;;;;35.20;20.33;;;-3.00;99.90;;;;;;5036956;28;20034;-81
2021/12/23 09:34:39;;;;;;;33.67;20.60;;;-2.80;99.90;;;;;;4971066;28;20088;-79
2021/12/23 09:37:04;;;;;;;35.67;20.60;;;-2.70;99.90;;;;;;4972862;28;20034;-85
2021/12/23 09:39:30;;;;;;;32.90;20.40;;;-2.60;99.90;;;;;;4974101;28;20045;-81
2021/12/23 09:41:57;;;;;;;36.10;21.30;;;-2.50;99.90;;;;;;4957337;28;20051;-74
2021/12/23 09:44:23;;;;;;;33.20;18.97;;;-2.40;99.90;;;;;;4957581;28;20039;-79
2021/12/23 09:46:50;;;;;;;33.10;19.40;;;-2.30;99.90;;;;;;4963180;28;20043;-84
2021/12/23 09:49:16;;;;;;;35.90;19.47;;;-2.20;99.90;;;;;;4968675;28;20114;-84
2021/12/23 09:51:43;;;;;;;31.73;18.63;;;-2.20;99.90;;;;;;5019784;28;20115;-83
2021/12/23 09:54:09;;;;;;;30.93;18.57;;;-2.10;99.90;;;;;;4956032;28;20027;-82
2021/12/23 09:56:35;;;;;;;30.20;18.13;;;-2.00;99.90;;;;;;4954729;28;20026;-84
2021/12/23 09:59:03;;;;;;;29.20;18.23;;;-1.90;99.90;;;;;;4959509;28;20035;-80
2021/12/23 10:01:30;;;;;;;32.00;18.67;;;-1.80;99.90;;;;;;4960639;28;20439;-81
2021/12/23 10:03:56;;;;;;;31.90;18.80;;;-1.70;99.90;;;;;;4967419;28;20034;-81
2021/12/23 10:06:24;;;;;;;50.00;23.27;;;-1.70;99.90;;;;;;4968482;28;20029;-81
2021/12/23 10:08:50;;;;;;;33.07;18.13;;;-1.60;99.90;;;;;;4970447;28;20027;-83
2021/12/23 10:11:32;;;;;;;31.73;18.90;;;-1.60;99.90;;;;;;4969957;28;20433;-83
2021/12/23 10:30:35;;;;;;;28.80;18.40;;;-1.10;99.90;;;;;;4954644;28;20115;-83
2021/12/23 10:38:37;;;;;;;27.33;17.17;;;-0.80;99.90;;;;;;4967952;28;20427;-83
2021/12/23 10:41:05;;;;;;;27.07;17.50;;;-0.80;99.90;;;;;;4966143;28;20510;-83
2021/12/23 10:43:36;;;;;;;23.90;15.47;;;-0.70;99.90;;;;;;4993934;28;20348;-83
2021/12/23 10:46:21;;;;;;;27.10;16.43;;;-0.60;99.90;;;;;;4994930;28;20031;-83
2021/12/23 10:49:22;;;;;;;27.00;16.13;;;-0.50;99.90;;;;;;4974820;28;20023;-83
2021/12/23 10:52:15;;;;;;;26.37;15.93;;;-0.40;99.90;;;;;;4968863;28;20552;-82
2021/12/23 11:00:18;;;;;;;25.67;15.07;;;-0.10;99.90;;;;;;4949036;28;20467;-82
2021/12/23 11:03:22;;;;;;;24.83;16.07;;;0.00;99.90;;;;;;4952415;28;20479;-82
2021/12/23 11:08:43;;;;;;;21.93;14.70;;;0.20;99.90;;;;;;4956141;28;20031;-83
2021/12/23 11:31:53;;;;;;;27.47;16.17;;;0.80;99.90;;;;;;4955271;28;20031;-83
2021/12/23 11:39:06;;;;;;;27.17;17.37;;;0.90;99.90;;;;;;4951521;28;20407;-83
2021/12/23 11:41:36;;;;;;;24.33;16.63;;;0.90;99.90;;;;;;4951815;28;20080;-83
2021/12/23 11:44:05;;;;;;;26.13;16.40;;;1.00;99.90;;;;;;4950986;28;20045;-83
2021/12/23 11:46:37;;;;;;;26.40;16.20;;;1.00;99.90;;;;;;4960161;28;20027;-83
2021/12/23 11:49:07;;;;;;;26.17;16.40;;;1.10;99.90;;;;;;4967965;28;20386;-82
2021/12/23 11:51:53;;;;;;;23.00;15.40;;;1.20;99.90;;;;;;5034447;28;20022;-83
2021/12/23 11:54:46;;;;;;;24.97;14.93;;;1.20;99.90;;;;;;4968952;28;20072;-83
2021/12/23 11:57:19;;;;;;;23.90;14.80;;;1.30;99.90;;;;;;4971005;28;20043;-82
2021/12/23 12:00:15;;;;;;;21.00;14.37;;;1.30;99.90;;;;;;4968752;28;20089;-82
2021/12/23 12:02:42;;;;;;;28.57;15.77;;;1.30;99.90;;;;;;4966602;28;20506;-83
2021/12/23 12:05:15;;;;;;;21.70;14.30;;;1.40;99.90;;;;;;4970256;28;20022;-82
2021/12/23 12:07:41;;;;;;;21.10;14.10;;;1.40;99.90;;;;;;4970446;28;20047;-83
2021/12/23 12:10:10;;;;;;;21.50;13.87;;;1.40;99.90;;;;;;4970708;28;20734;-83
2021/12/23 12:12:55;;;;;;;21.33;14.47;;;1.50;99.90;;;;;;4970074;28;20031;-83
2021/12/23 12:15:34;;;;;;;21.80;14.32;;;1.50;99.90;;;;;;4970680;28;20094;-83
2021/12/23 12:18:04;;;;;;;20.80;13.47;;;1.50;99.90;;;;;;4970673;28;20035;-83
2021/12/23 12:20:38;;;;;;;19.37;13.70;;;1.60;99.90;;;;;;4970624;28;20373;-83
2021/12/23 12:23:05;;;;;;;25.20;14.43;;;1.60;99.90;;;;;;4961040;28;20125;-83
2021/12/23 12:25:30;;;;;;;27.20;13.93;;;1.60;99.90;;;;;;4948402;29;20114;-84
2021/12/23 12:27:56;;;;;;;24.03;15.77;;;1.60;99.90;;;;;;4950046;29;20027;-83
2021/12/23 12:30:40;;;;;;;31.73;18.47;;;1.60;99.90;;;;;;4946130;29;20027;-85
2021/12/23 12:33:35;;;;;;;29.13;17.40;;;1.60;99.90;;;;;;5030700;28;20030;-84
2021/12/23 12:36:00;;;;;;;25.00;15.70;;;1.60;99.90;;;;;;5029514;28;20031;-84
2021/12/23 12:38:29;;;;;;;28.83;16.13;;;1.70;99.90;;;;;;4961582;28;20032;-84
2021/12/23 12:41:08;;;;;;;26.13;16.57;;;1.70;99.90;;;;;;4947601;28;20070;-84
2021/12/23 12:43:42;;;;;;;23.43;16.17;;;1.80;99.90;;;;;;4945776;28;20019;-85
2021/12/23 12:46:10;;;;;;;22.87;15.27;;;1.80;99.90;;;;;;4946175;28;20027;-84
2021/12/23 12:48:55;;;;;;;19.40;13.40;;;1.80;99.90;;;;;;4947785;28;20036;-84
2021/12/23 12:51:25;;;;;;;20.20;13.57;;;1.90;99.90;;;;;;4949562;28;20024;-84
2021/12/23 12:53:55;;;;;;;21.90;13.03;;;1.90;99.90;;;;;;4949992;28;20454;-84
2021/12/23 12:56:22;;;;;;;19.63;12.83;;;1.90;99.90;;;;;;4950974;28;20764;-85
2021/12/23 12:58:53;;;;;;;21.20;13.20;;;1.90;99.90;;;;;;4953058;28;20114;-85
2021/12/23 13:01:42;;;;;;;19.00;13.43;;;1.90;99.90;;;;;;4953964;28;20019;-84
2021/12/23 13:04:48;;;;;;;19.27;13.50;;;1.90;99.90;;;;;;4956657;28;20076;-84
2021/12/23 13:07:29;;;;;;;21.38;13.35;;;2.00;99.90;;;;;;4991972;28;20022;-84
2021/12/23 13:10:19;;;;;;;21.60;13.67;;;2.00;99.90;;;;;;4974219;28;20101;-86
2021/12/23 13:12:55;;;;;;;21.43;14.17;;;2.00;99.90;;;;;;4970567;28;20118;-84
2021/12/23 13:15:33;;;;;;;22.83;13.80;;;2.00;99.90;;;;;;5037311;28;20047;-84
2021/12/23 13:18:09;;;;;;;22.60;14.43;;;2.00;99.90;;;;;;4970462;28;20555;-83
2021/12/23 13:20:40;;;;;;;20.13;12.87;;;2.00;99.90;;;;;;4970519;28;20169;-84
2021/12/23 13:23:21;;;;;;;21.10;13.67;;;2.10;99.90;;;;;;4970170;28;20142;-84
2021/12/23 13:25:51;;;;;;;20.20;12.77;;;2.10;99.90;;;;;;4971126;28;20020;-84
2021/12/23 13:28:42;;;;;;;21.77;13.70;;;2.10;99.90;;;;;;4971700;28;20042;-85
2021/12/23 13:31:16;;;;;;;18.93;13.17;;;2.10;99.90;;;;;;4977162;28;20042;-84
2021/12/23 13:33:47;;;;;;;21.58;13.82;;;2.20;99.90;;;;;;5038516;28;20038;-85
2021/12/23 13:36:34;;;;;;;23.37;14.37;;;2.20;99.90;;;;;;4970825;28;20475;-87
2021/12/23 13:39:03;;;;;;;23.87;14.80;;;2.20;99.90;;;;;;4969323;28;20043;-84
2021/12/23 13:41:32;;;;;;;22.67;13.30;;;2.20;99.90;;;;;;4969804;28;20030;-84